createdAt,value
2017-08-11T00:01:35.702Z,15.70
2017-08-11T00:04:01.610Z,15.70
2017-08-11T00:06:27.537Z,15.80
2017-08-11T00:08:53.456Z,15.70
2017-08-11T00:11:19.374Z,15.70
2017-08-11T00:13:45.324Z,15.70
2017-08-11T00:16:11.315Z,15.70
2017-08-11T00:18:37.263Z,15.70
2017-08-11T00:21:03.222Z,15.70
2017-08-11T00:23:29.180Z,15.70
2017-08-11T00:25:55.168Z,15.60
2017-08-11T00:28:21.118Z,15.60
2017-08-11T00:30:47.060Z,15.70
2017-08-11T00:33:12.993Z,15.70
2017-08-11T00:35:38.940Z,15.70
2017-08-11T00:38:05.664Z,15.70
2017-08-11T00:40:31.597Z,15.60
2017-08-11T00:42:57.539Z,15.70
2017-08-11T00:45:23.455Z,15.60
2017-08-11T00:47:49.358Z,15.70
2017-08-11T00:50:15.299Z,15.70
2017-08-11T00:52:41.279Z,15.70
2017-08-11T00:55:07.222Z,15.70
2017-08-11T00:57:33.161Z,15.80
2017-08-11T00:59:59.831Z,15.80
2017-08-11T01:02:25.767Z,15.70
2017-08-11T01:04:51.691Z,15.80
2017-08-11T01:07:17.629Z,15.80
2017-08-11T01:09:43.544Z,15.90
2017-08-11T01:12:09.609Z,15.90
2017-08-11T01:14:36.391Z,16.00
2017-08-11T01:17:02.451Z,15.90
2017-08-11T01:19:28.383Z,15.90
2017-08-11T01:21:54.365Z,15.90
2017-08-11T01:24:21.356Z,16.00
2017-08-11T01:26:48.050Z,15.90
2017-08-11T01:29:13.993Z,15.90
2017-08-11T01:31:39.934Z,16.00
2017-08-11T01:34:05.927Z,15.90
2017-08-11T01:36:31.862Z,15.90
2017-08-11T01:38:57.799Z,15.90
2017-08-11T01:41:24.497Z,15.90
2017-08-11T01:43:50.442Z,15.80
2017-08-11T01:46:16.380Z,15.80
2017-08-11T01:48:42.408Z,15.90
2017-08-11T01:51:09.078Z,15.90
2017-08-11T01:53:35.070Z,15.90
2017-08-11T01:56:01.000Z,15.80
2017-08-11T01:58:27.928Z,15.90
2017-08-11T02:00:53.851Z,15.90
2017-08-11T02:03:20.499Z,15.90
2017-08-11T02:05:46.439Z,15.80
2017-08-11T02:08:12.375Z,15.90
2017-08-11T02:10:38.338Z,15.90
2017-08-11T02:13:04.486Z,15.90
2017-08-11T02:15:30.386Z,15.90
2017-08-11T02:17:56.360Z,15.90
2017-08-11T02:20:22.332Z,16.00
2017-08-11T02:22:48.255Z,15.90
2017-08-11T02:25:14.359Z,16.00
2017-08-11T02:27:40.279Z,15.90
2017-08-11T02:30:06.199Z,16.00
2017-08-11T02:32:32.156Z,16.00
2017-08-11T02:34:58.155Z,16.00
2017-08-11T02:37:24.139Z,16.00
2017-08-11T02:39:50.141Z,15.80
2017-08-11T02:42:16.084Z,15.90
2017-08-11T02:44:42.030Z,15.90
2017-08-11T02:47:08.002Z,15.90
2017-08-11T02:49:33.918Z,15.90
2017-08-11T02:51:59.844Z,15.90
2017-08-11T02:54:25.786Z,15.90
2017-08-11T02:56:51.687Z,15.90
2017-08-11T02:59:17.616Z,15.80
2017-08-11T03:01:43.584Z,15.80
2017-08-11T03:04:09.559Z,15.80
2017-08-11T03:06:35.490Z,15.80
2017-08-11T03:09:01.451Z,15.70
2017-08-11T03:11:28.142Z,15.80
2017-08-11T03:13:54.100Z,15.80
2017-08-11T03:16:20.027Z,15.80
2017-08-11T03:18:46.051Z,15.90
2017-08-11T03:21:12.764Z,15.70
2017-08-11T03:23:38.707Z,15.70
2017-08-11T03:26:04.627Z,15.80
2017-08-11T03:28:30.570Z,15.80
2017-08-11T03:30:56.509Z,15.70
2017-08-11T03:33:22.475Z,15.80
2017-08-11T03:35:48.459Z,15.80
2017-08-11T03:38:14.399Z,15.80
2017-08-11T03:40:40.339Z,15.80
2017-08-11T03:43:06.358Z,15.80
2017-08-11T03:45:44.675Z,15.90
2017-08-11T03:48:10.767Z,15.80
2017-08-11T03:50:36.677Z,15.90
2017-08-11T03:53:02.599Z,15.60
2017-08-11T03:55:28.512Z,15.60
2017-08-11T03:57:54.432Z,15.60
2017-08-11T04:00:20.357Z,15.60
2017-08-11T04:02:46.317Z,15.60
2017-08-11T04:05:12.239Z,15.50
2017-08-11T04:07:38.172Z,15.50
2017-08-11T04:10:04.143Z,15.50
2017-08-11T04:12:30.128Z,15.50
2017-08-11T04:14:56.843Z,15.50
2017-08-11T04:17:22.775Z,15.40
2017-08-11T04:19:48.724Z,15.50
2017-08-11T04:22:14.756Z,15.50
2017-08-11T04:24:40.696Z,15.50
2017-08-11T04:27:06.672Z,15.50
2017-08-11T04:29:32.653Z,15.50
2017-08-11T04:31:58.553Z,15.30
2017-08-11T04:34:24.554Z,15.50
2017-08-11T04:36:50.541Z,15.50
2017-08-11T04:39:16.571Z,15.60
2017-08-11T04:41:42.544Z,15.50
2017-08-11T04:44:08.487Z,15.60
2017-08-11T04:46:34.461Z,15.60
2017-08-11T04:49:00.385Z,15.60
2017-08-11T04:51:26.325Z,15.60
2017-08-11T04:53:53.204Z,15.60
2017-08-11T04:56:19.120Z,15.50
2017-08-11T04:58:45.058Z,15.70
2017-08-11T05:01:12.723Z,15.40
2017-08-11T05:03:38.655Z,15.30
2017-08-11T05:06:04.576Z,15.30
2017-08-11T05:08:30.514Z,15.30
2017-08-11T05:10:56.427Z,15.30
2017-08-11T05:13:22.355Z,15.30
2017-08-11T05:15:48.295Z,15.30
2017-08-11T05:18:14.198Z,15.30
2017-08-11T05:20:40.113Z,15.30
2017-08-11T05:23:06.053Z,15.40
2017-08-11T05:25:32.015Z,15.50
2017-08-11T05:27:58.696Z,15.60
2017-08-11T05:30:24.715Z,15.50
2017-08-11T05:32:50.714Z,15.60
2017-08-11T05:35:17.444Z,15.50
2017-08-11T05:37:43.423Z,15.50
2017-08-11T05:40:09.394Z,15.60
2017-08-11T05:42:36.169Z,15.20
2017-08-11T05:45:02.075Z,15.10
2017-08-11T05:47:28.030Z,15.20
2017-08-11T05:49:53.972Z,15.20
2017-08-11T05:52:19.929Z,15.30
2017-08-11T05:54:45.934Z,15.40
2017-08-11T05:57:11.870Z,15.40
2017-08-11T05:59:37.871Z,15.40
2017-08-11T06:02:03.907Z,15.40
2017-08-11T06:04:30.596Z,15.40
2017-08-11T06:06:57.441Z,15.30
2017-08-11T06:09:23.413Z,15.30
2017-08-11T06:11:49.323Z,15.30
2017-08-11T06:14:15.275Z,15.30
2017-08-11T06:16:41.195Z,15.20
2017-08-11T06:19:07.119Z,15.20
2017-08-11T06:21:33.039Z,15.20
2017-08-11T06:23:58.949Z,15.20
2017-08-11T06:26:24.883Z,15.20
2017-08-11T06:28:50.794Z,15.10
2017-08-11T06:31:16.724Z,15.20
2017-08-11T06:33:42.731Z,15.20
2017-08-11T06:36:08.667Z,15.20
2017-08-11T06:38:34.588Z,15.20
2017-08-11T06:41:00.525Z,15.30
2017-08-11T06:43:26.483Z,15.20
2017-08-11T06:45:52.432Z,15.30
2017-08-11T06:48:18.336Z,15.20
2017-08-11T06:50:44.295Z,15.20
2017-08-11T06:53:10.711Z,15.10
2017-08-11T06:55:36.658Z,15.20
2017-08-11T06:58:02.565Z,15.00
2017-08-11T07:00:28.522Z,15.00
2017-08-11T07:02:54.440Z,14.90
2017-08-11T07:05:20.353Z,15.00
2017-08-11T07:07:46.336Z,15.00
2017-08-11T07:10:12.936Z,15.00
2017-08-11T07:12:38.899Z,15.10
2017-08-11T07:15:04.872Z,15.10
2017-08-11T07:17:30.828Z,15.10
2017-08-11T07:19:56.768Z,15.10
2017-08-11T07:22:22.735Z,14.90
2017-08-11T07:24:48.940Z,15.00
2017-08-11T07:27:14.881Z,15.10
2017-08-11T07:29:40.823Z,15.00
2017-08-11T07:32:06.744Z,15.00
2017-08-11T07:34:33.193Z,14.90
2017-08-11T07:36:59.121Z,14.90
2017-08-11T07:39:25.061Z,14.90
2017-08-11T07:41:50.999Z,14.90
2017-08-11T07:44:16.946Z,14.90
2017-08-11T07:46:42.873Z,14.90
2017-08-11T07:49:08.903Z,15.00
2017-08-11T07:51:34.843Z,15.10
2017-08-11T07:54:00.874Z,15.10
2017-08-11T07:56:26.820Z,15.20
2017-08-11T07:58:52.784Z,15.20
2017-08-11T08:01:18.764Z,15.20
2017-08-11T08:03:44.735Z,15.20
2017-08-11T08:06:10.851Z,15.30
2017-08-11T08:08:36.791Z,15.20
2017-08-11T08:11:02.748Z,15.20
2017-08-11T08:13:28.669Z,15.30
2017-08-11T08:15:54.611Z,15.30
2017-08-11T08:18:20.704Z,15.30
2017-08-11T08:20:46.607Z,15.40
2017-08-11T08:23:12.551Z,15.40
2017-08-11T08:25:38.495Z,15.50
2017-08-11T08:28:04.423Z,15.50
2017-08-11T08:30:30.399Z,15.50
2017-08-11T08:32:56.342Z,15.50
2017-08-11T08:35:22.305Z,15.40
2017-08-11T08:37:48.227Z,15.50
2017-08-11T08:40:14.198Z,15.60
2017-08-11T08:42:40.141Z,15.60
2017-08-11T08:45:06.099Z,15.60
2017-08-11T08:47:32.767Z,15.60
2017-08-11T08:49:58.701Z,15.60
2017-08-11T08:52:24.623Z,15.50
2017-08-11T08:54:50.555Z,15.60
2017-08-11T08:57:16.498Z,15.70
2017-08-11T08:59:42.447Z,15.80
2017-08-11T09:02:08.385Z,15.70
2017-08-11T09:04:34.336Z,15.80
2017-08-11T09:07:00.255Z,15.80
2017-08-11T09:09:26.219Z,15.80
2017-08-11T09:11:52.168Z,15.80
2017-08-11T09:14:18.109Z,15.90
2017-08-11T09:16:44.220Z,16.00
2017-08-11T09:19:10.128Z,16.00
2017-08-11T09:21:36.129Z,16.10
2017-08-11T09:24:02.076Z,16.10
2017-08-11T09:26:40.299Z,16.30
2017-08-11T09:29:18.619Z,16.30
2017-08-11T09:31:56.900Z,16.30
2017-08-11T09:34:35.212Z,16.30
2017-08-11T09:37:01.171Z,16.20
2017-08-11T09:39:27.121Z,16.20
2017-08-11T09:41:53.068Z,16.20
2017-08-11T09:44:19.054Z,16.30
2017-08-11T09:46:45.007Z,16.30
2017-08-11T09:49:10.955Z,16.40
2017-08-11T09:51:36.929Z,16.40
2017-08-11T09:54:03.639Z,16.40
2017-08-11T09:56:29.619Z,16.30
2017-08-11T09:58:55.615Z,16.40
2017-08-11T10:01:22.323Z,16.30
2017-08-11T10:03:48.267Z,16.20
2017-08-11T10:06:14.283Z,16.30
2017-08-11T10:08:41.003Z,16.30
2017-08-11T10:11:06.970Z,16.30
2017-08-11T10:13:32.889Z,16.30
2017-08-11T10:15:58.847Z,16.30
2017-08-11T10:18:24.820Z,16.30
2017-08-11T10:20:50.746Z,16.30
2017-08-11T10:23:18.362Z,16.30
2017-08-11T10:25:44.281Z,16.20
2017-08-11T10:28:10.281Z,16.30
2017-08-11T10:30:36.264Z,16.30
2017-08-11T10:33:02.190Z,16.40
2017-08-11T10:35:28.117Z,16.40
2017-08-11T10:37:54.077Z,16.40
2017-08-11T10:40:20.041Z,16.40
2017-08-11T10:42:45.955Z,16.40
2017-08-11T10:45:12.023Z,16.40
2017-08-11T10:47:38.004Z,16.50
2017-08-11T10:50:04.771Z,16.40
2017-08-11T10:52:30.734Z,16.40
2017-08-11T10:54:56.803Z,16.40
2017-08-11T10:57:22.763Z,16.40
2017-08-11T10:59:48.712Z,16.40
2017-08-11T11:02:14.668Z,16.40
2017-08-11T11:04:40.631Z,16.40
2017-08-11T11:07:06.645Z,16.50
2017-08-11T11:09:32.583Z,16.40
2017-08-11T11:11:58.563Z,16.50
2017-08-11T11:14:24.531Z,16.50
2017-08-11T11:16:50.478Z,16.60
2017-08-11T11:19:16.431Z,16.60
2017-08-11T11:21:42.402Z,16.70
2017-08-11T11:24:08.443Z,16.70
2017-08-11T11:26:34.499Z,16.80
2017-08-11T11:29:00.466Z,16.90
2017-08-11T11:31:26.427Z,16.90
2017-08-11T11:33:52.371Z,17.00
2017-08-11T11:36:18.326Z,17.00
2017-08-11T11:38:44.301Z,17.20
2017-08-11T11:41:10.195Z,17.20
2017-08-11T11:43:36.144Z,17.20
2017-08-11T11:46:02.070Z,17.20
2017-08-11T11:48:27.996Z,17.30
2017-08-11T11:50:53.901Z,17.40
2017-08-11T11:53:19.838Z,17.50
2017-08-11T11:55:45.755Z,17.40
2017-08-11T11:58:11.731Z,17.40
2017-08-11T12:00:37.724Z,17.30
2017-08-11T12:03:03.724Z,17.30
2017-08-11T12:05:29.688Z,17.30
2017-08-11T12:07:55.657Z,17.20
2017-08-11T12:10:21.593Z,17.30
2017-08-11T12:12:47.563Z,17.20
2017-08-11T12:15:13.543Z,17.20
2017-08-11T12:17:39.469Z,17.10
2017-08-11T12:20:05.435Z,17.20
2017-08-11T12:22:31.355Z,17.10
2017-08-11T12:24:58.010Z,17.20
2017-08-11T12:27:23.953Z,17.20
2017-08-11T12:29:49.867Z,17.10
2017-08-11T12:32:15.821Z,17.10
2017-08-11T12:34:41.840Z,17.10
2017-08-11T12:37:07.742Z,17.00
2017-08-11T12:39:33.744Z,17.00
2017-08-11T12:41:59.656Z,17.00
2017-08-11T12:44:25.575Z,17.00
2017-08-11T12:46:51.582Z,17.00
2017-08-11T12:49:17.521Z,17.00
2017-08-11T12:51:43.507Z,17.00
2017-08-11T12:54:09.445Z,17.00
2017-08-11T12:56:35.435Z,17.00
2017-08-11T12:59:01.412Z,17.00
2017-08-11T13:01:27.355Z,17.20
2017-08-11T13:03:53.297Z,17.20
2017-08-11T13:06:19.207Z,17.20
2017-08-11T13:08:45.141Z,17.20
2017-08-11T13:11:11.083Z,17.20
2017-08-11T13:13:37.039Z,17.20
2017-08-11T13:16:03.012Z,17.10
2017-08-11T13:18:28.931Z,17.10
2017-08-11T13:20:54.853Z,17.00
2017-08-11T13:23:20.783Z,17.00
2017-08-11T13:25:46.730Z,17.00
2017-08-11T13:28:12.694Z,17.00
2017-08-11T13:30:38.605Z,17.10
2017-08-11T13:33:04.542Z,17.20
2017-08-11T13:35:30.518Z,17.10
2017-08-11T13:37:56.437Z,17.00
2017-08-11T13:40:22.415Z,17.00
2017-08-11T13:42:48.348Z,17.10
2017-08-11T13:45:14.341Z,17.10
2017-08-11T13:47:40.279Z,17.10
2017-08-11T13:50:06.208Z,17.20
2017-08-11T13:52:32.123Z,17.20
2017-08-11T13:54:58.128Z,16.90
2017-08-11T13:57:24.081Z,16.80
2017-08-11T13:59:50.798Z,16.80
2017-08-11T14:02:16.732Z,16.80
2017-08-11T14:04:42.750Z,16.80
2017-08-11T14:07:09.504Z,16.80
2017-08-11T14:09:35.458Z,16.70
2017-08-11T14:12:01.382Z,16.70
2017-08-11T14:14:27.292Z,16.70
2017-08-11T14:16:53.227Z,16.70
2017-08-11T14:19:19.139Z,16.70
2017-08-11T14:21:45.070Z,16.80
2017-08-11T14:24:17.195Z,16.80
2017-08-11T14:26:43.141Z,16.70
2017-08-11T14:29:09.660Z,16.70
2017-08-11T14:31:35.662Z,16.70
2017-08-11T14:34:01.683Z,16.70
2017-08-11T14:36:27.632Z,16.80
2017-08-11T14:38:54.220Z,16.80
2017-08-11T14:41:20.169Z,16.70
2017-08-11T14:43:46.101Z,16.70
2017-08-11T14:46:12.051Z,16.60
2017-08-11T14:48:38.046Z,16.60
2017-08-11T14:51:04.049Z,16.60
2017-08-11T14:53:30.017Z,16.60
2017-08-11T14:55:55.952Z,16.60
2017-08-11T14:58:21.954Z,16.70
2017-08-11T15:00:47.939Z,16.70
2017-08-11T15:03:13.855Z,16.60
2017-08-11T15:05:39.859Z,16.60
2017-08-11T15:08:05.907Z,16.60
2017-08-11T15:10:32.561Z,16.50
2017-08-11T15:12:58.503Z,16.50
2017-08-11T15:15:24.431Z,16.50
2017-08-11T15:17:50.359Z,16.60
2017-08-11T15:20:16.316Z,16.50
2017-08-11T15:22:42.282Z,16.60
2017-08-11T15:25:08.216Z,16.60
2017-08-11T15:27:34.168Z,16.60
2017-08-11T15:30:00.887Z,16.60
2017-08-11T15:32:26.819Z,16.70
2017-08-11T15:34:52.772Z,16.60
2017-08-11T15:37:18.703Z,16.60
2017-08-11T15:39:44.631Z,16.50
2017-08-11T15:42:10.538Z,16.50
2017-08-11T15:44:36.490Z,16.60
2017-08-11T15:47:02.461Z,16.50
2017-08-11T15:49:29.126Z,16.40
2017-08-11T15:51:56.045Z,16.40
2017-08-11T15:54:22.043Z,16.40
2017-08-11T15:56:47.977Z,16.30
2017-08-11T15:59:14.636Z,16.20
2017-08-11T16:01:40.573Z,16.20
2017-08-11T16:04:06.598Z,16.20
2017-08-11T16:06:32.560Z,16.20
2017-08-11T16:08:58.879Z,16.10
2017-08-11T16:11:24.827Z,16.10
2017-08-11T16:13:50.776Z,16.20
2017-08-11T16:16:16.709Z,16.10
2017-08-11T16:18:42.636Z,16.20
2017-08-11T16:21:08.567Z,16.20
2017-08-11T16:23:34.551Z,16.30
2017-08-11T16:26:00.472Z,16.30
2017-08-11T16:28:26.440Z,16.40
2017-08-11T16:30:52.383Z,16.30
2017-08-11T16:33:18.362Z,16.30
2017-08-11T16:35:44.269Z,16.30
2017-08-11T16:38:10.163Z,16.20
2017-08-11T16:40:36.869Z,16.20
2017-08-11T16:43:02.797Z,16.20
2017-08-11T16:45:28.755Z,16.30
2017-08-11T16:47:54.695Z,16.20
2017-08-11T16:50:20.640Z,16.20
2017-08-11T16:52:47.374Z,16.20
2017-08-11T16:55:13.345Z,16.20
2017-08-11T16:57:39.276Z,16.20
2017-08-11T17:00:05.376Z,16.10
2017-08-11T17:02:31.279Z,16.10
2017-08-11T17:04:57.951Z,16.10
2017-08-11T17:07:23.925Z,16.20
2017-08-11T17:09:49.871Z,16.20
2017-08-11T17:12:15.793Z,16.20
2017-08-11T17:14:41.835Z,16.20
2017-08-11T17:17:07.759Z,16.30
2017-08-11T17:19:33.705Z,16.30
2017-08-11T17:21:59.683Z,16.30
2017-08-11T17:24:26.718Z,16.20
2017-08-11T17:26:52.635Z,16.10
2017-08-11T17:29:18.625Z,16.10
2017-08-11T17:31:44.545Z,16.10
2017-08-11T17:34:10.767Z,16.00
2017-08-11T17:36:36.703Z,16.00
2017-08-11T17:39:02.720Z,16.00
2017-08-11T17:41:29.428Z,16.00
2017-08-11T17:43:55.348Z,16.00
2017-08-11T17:46:21.271Z,16.00
2017-08-11T17:48:47.219Z,15.90
2017-08-11T17:51:13.139Z,15.90
2017-08-11T17:53:39.103Z,15.90
2017-08-11T17:56:05.041Z,15.80
2017-08-11T17:58:30.998Z,15.80
2017-08-11T18:00:56.938Z,15.80
2017-08-11T18:03:22.908Z,15.80
2017-08-11T18:05:49.630Z,15.80
2017-08-11T18:08:15.612Z,15.70
2017-08-11T18:10:41.628Z,15.80
2017-08-11T18:13:07.589Z,15.80
2017-08-11T18:15:33.655Z,15.80
2017-08-11T18:18:00.399Z,15.90
2017-08-11T18:20:26.296Z,16.10
2017-08-11T18:22:52.488Z,16.00
2017-08-11T18:25:18.464Z,15.90
2017-08-11T18:27:44.445Z,15.90
2017-08-11T18:30:10.371Z,15.90
2017-08-11T18:32:36.308Z,15.80
2017-08-11T18:35:02.223Z,15.80
2017-08-11T18:37:28.149Z,15.70
2017-08-11T18:39:54.103Z,15.80
2017-08-11T18:42:20.042Z,15.80
2017-08-11T18:44:45.991Z,15.80
2017-08-11T18:47:12.675Z,15.70
2017-08-11T18:49:38.621Z,15.70
2017-08-11T18:52:04.555Z,15.70
2017-08-11T18:54:30.604Z,15.60
2017-08-11T18:56:57.347Z,15.60
2017-08-11T18:59:23.300Z,15.40
2017-08-11T19:01:49.240Z,15.50
2017-08-11T19:04:15.223Z,15.50
2017-08-11T19:06:41.214Z,15.50
2017-08-11T19:09:07.225Z,15.50
2017-08-11T19:11:33.161Z,15.60
2017-08-11T19:13:59.122Z,15.70
2017-08-11T19:16:25.089Z,15.70
2017-08-11T19:18:51.044Z,15.70
2017-08-11T19:21:17.023Z,15.60
2017-08-11T19:23:42.995Z,15.60
2017-08-11T19:26:08.936Z,15.70
2017-08-11T19:28:34.906Z,15.60
2017-08-11T19:31:00.855Z,15.60
2017-08-11T19:33:26.814Z,15.70
2017-08-11T19:35:52.764Z,15.60
2017-08-11T19:38:18.686Z,15.60
2017-08-11T19:40:44.646Z,15.50
2017-08-11T19:43:10.604Z,15.40
2017-08-11T19:45:36.572Z,15.30
2017-08-11T19:48:02.543Z,15.20
2017-08-11T19:50:28.507Z,15.20
2017-08-11T19:52:54.430Z,15.20
2017-08-11T19:55:20.360Z,15.20
2017-08-11T19:57:46.307Z,15.10
2017-08-11T20:00:12.389Z,15.10
2017-08-11T20:02:38.302Z,15.00
2017-08-11T20:05:04.227Z,15.00
2017-08-11T20:07:30.149Z,14.90
2017-08-11T20:09:56.088Z,14.90
2017-08-11T20:12:22.001Z,14.90
2017-08-11T20:14:47.925Z,14.90
2017-08-11T20:17:13.846Z,14.90
2017-08-11T20:19:39.772Z,14.90
2017-08-11T20:22:05.705Z,14.90
2017-08-11T20:24:31.675Z,14.80
2017-08-11T20:26:57.626Z,14.80
2017-08-11T20:29:23.566Z,14.70
2017-08-11T20:31:49.511Z,14.70
2017-08-11T20:34:15.496Z,14.70
2017-08-11T20:36:41.517Z,14.60
2017-08-11T20:39:08.069Z,14.60
2017-08-11T20:41:33.990Z,14.60
2017-08-11T20:43:59.952Z,14.50
2017-08-11T20:46:25.937Z,14.50
2017-08-11T20:48:51.874Z,14.50
2017-08-11T20:51:17.796Z,14.50
2017-08-11T20:53:43.707Z,14.50
2017-08-11T20:56:09.684Z,14.50
2017-08-11T20:58:36.363Z,14.60
2017-08-11T21:01:02.412Z,14.50
2017-08-11T21:03:28.362Z,14.60
2017-08-11T21:05:55.078Z,14.60
2017-08-11T21:08:21.028Z,14.60
2017-08-11T21:10:46.994Z,14.60
2017-08-11T21:13:12.912Z,14.60
2017-08-11T21:15:38.843Z,14.60
2017-08-11T21:18:04.787Z,14.60
2017-08-11T21:20:30.732Z,14.60
2017-08-11T21:22:57.646Z,14.50
2017-08-11T21:25:23.635Z,14.50
2017-08-11T21:27:49.594Z,14.60
2017-08-11T21:30:15.635Z,14.60
2017-08-11T21:32:42.363Z,14.60
2017-08-11T21:35:08.370Z,14.60
2017-08-11T21:37:34.342Z,14.60
2017-08-11T21:40:01.059Z,14.60
2017-08-11T21:42:27.030Z,14.70
2017-08-11T21:44:59.719Z,14.60
2017-08-11T21:47:26.044Z,14.60
2017-08-11T21:49:51.979Z,14.60
2017-08-11T21:52:17.907Z,14.60
2017-08-11T21:54:43.859Z,14.60
2017-08-11T21:57:09.843Z,14.50
2017-08-11T21:59:35.785Z,14.60
2017-08-11T22:02:01.827Z,14.50
2017-08-11T22:04:27.771Z,14.50
2017-08-11T22:06:54.729Z,14.50
2017-08-11T22:09:20.699Z,14.50
2017-08-11T22:11:46.651Z,14.60
2017-08-11T22:14:12.622Z,14.60
2017-08-11T22:16:38.567Z,14.60
2017-08-11T22:19:05.321Z,14.60
2017-08-11T22:21:31.240Z,14.60
2017-08-11T22:23:57.155Z,14.60
2017-08-11T22:26:23.082Z,14.60
2017-08-11T22:28:49.009Z,14.60
2017-08-11T22:31:14.957Z,14.50
2017-08-11T22:33:40.994Z,14.50
2017-08-11T22:36:06.924Z,14.60
2017-08-11T22:38:32.863Z,14.60
2017-08-11T22:40:58.794Z,14.50
2017-08-11T22:43:24.840Z,14.50
2017-08-11T22:45:50.807Z,14.50
2017-08-11T22:48:16.712Z,14.50
2017-08-11T22:50:42.650Z,14.50
2017-08-11T22:53:08.592Z,14.50
2017-08-11T22:55:35.262Z,14.50
2017-08-11T22:58:01.188Z,14.50
2017-08-11T23:00:27.145Z,14.40
2017-08-11T23:02:53.082Z,14.40
2017-08-11T23:05:19.012Z,14.50
2017-08-11T23:07:44.934Z,14.50
2017-08-11T23:10:10.836Z,14.40
2017-08-11T23:12:36.772Z,14.50
2017-08-11T23:15:02.698Z,14.50
2017-08-11T23:17:28.619Z,14.50
2017-08-11T23:19:54.551Z,14.50
2017-08-11T23:22:20.470Z,14.50
2017-08-11T23:24:46.384Z,14.50
2017-08-11T23:27:12.296Z,14.50
2017-08-11T23:29:38.214Z,14.50
2017-08-11T23:32:04.112Z,14.50
2017-08-11T23:34:30.035Z,14.50
2017-08-11T23:36:56.002Z,14.50
2017-08-11T23:39:21.969Z,14.50
2017-08-11T23:41:47.900Z,14.50
2017-08-11T23:44:13.822Z,14.60
2017-08-11T23:46:39.731Z,14.60
2017-08-11T23:49:05.672Z,14.60
2017-08-11T23:51:31.592Z,14.60
2017-08-11T23:53:57.510Z,14.60
2017-08-11T23:56:23.471Z,14.60
2017-08-11T23:58:49.411Z,14.50
